Excelsior, Minnesota
Current Conditions -  °F | °C
As of 4:53 AM on Monday 20 Oct 2014 (Local Time) from KFCM Reporting Station
Clear Clear  
Wind Chill: 48°   Ceiling: Unl
Heat Index: 48°   Visibility: 10mi
Dew Point: 42°   Wind: 3mph
Humidity: 80%   Direction: 260°W
Pressure: 29.92"   Gusts: NA
Location:  44.9°N, 93.57°W
Report Text: KFCM 200953Z AUTO 26003KT 10SM CLR 09/06 A2992 RMK AO2 SLP132 T00890056 $
Loading
Personal Weather Stations






























Interactive Weather Map New forecast layout! Learn more

10-Day Weather Forecast

Advertisements
Track Severe Weather on mobile